createdAt,value
2018-02-22T00:01:03.652Z,71.40
2018-02-22T00:03:31.300Z,71.40
2018-02-22T00:05:59.735Z,71.40
2018-02-22T00:08:27.411Z,71.40
2018-02-22T00:10:55.052Z,71.40
2018-02-22T00:13:23.459Z,71.60
2018-02-22T00:15:51.096Z,71.60
2018-02-22T00:18:19.559Z,71.90
2018-02-22T00:20:47.223Z,71.90
2018-02-22T00:23:15.607Z,72.10
2018-02-22T00:25:43.261Z,71.90
2018-02-22T00:28:10.871Z,72.00
2018-02-22T00:30:38.541Z,71.90
2018-02-22T00:33:06.174Z,71.90
2018-02-22T00:35:33.784Z,72.00
2018-02-22T00:38:01.444Z,72.00
2018-02-22T00:40:29.073Z,72.00
2018-02-22T00:42:57.504Z,72.10
2018-02-22T00:45:25.165Z,72.10
2018-02-22T00:47:53.536Z,72.10
2018-02-22T00:50:21.943Z,72.20
2018-02-22T00:52:49.571Z,72.20
2018-02-22T00:55:17.239Z,72.20
2018-02-22T00:57:44.918Z,72.20
2018-02-22T01:00:12.550Z,72.20
2018-02-22T01:02:40.207Z,72.40
2018-02-22T01:05:08.583Z,72.40
2018-02-22T01:07:36.222Z,72.40
2018-02-22T01:10:03.934Z,73.70
2018-02-22T01:12:32.310Z,73.10
2018-02-22T01:14:59.963Z,72.60
2018-02-22T01:17:27.592Z,72.60
2018-02-22T01:19:56.043Z,72.60
2018-02-22T01:22:23.848Z,72.60
2018-02-22T01:24:52.246Z,72.70
2018-02-22T01:27:20.684Z,72.40
2018-02-22T01:29:48.307Z,72.40
2018-02-22T01:32:16.724Z,72.10
2018-02-22T01:34:44.362Z,72.00
2018-02-22T01:37:11.982Z,72.00
2018-02-22T01:39:39.627Z,72.00
2018-02-22T01:42:08.032Z,71.90
2018-02-22T01:44:35.708Z,71.90
2018-02-22T01:47:03.383Z,71.90
2018-02-22T01:49:31.021Z,71.90
2018-02-22T01:51:58.666Z,71.80
2018-02-22T01:54:27.046Z,71.80
2018-02-22T01:56:54.706Z,71.80
2018-02-22T01:59:22.372Z,71.70
2018-02-22T02:01:49.999Z,71.60
2018-02-22T02:04:17.648Z,71.50
2018-02-22T02:06:45.266Z,71.40
2018-02-22T02:09:12.904Z,71.30
2018-02-22T02:11:40.579Z,70.50
2018-02-22T02:14:08.219Z,71.10
2018-02-22T02:16:35.859Z,71.00
2018-02-22T02:19:03.465Z,71.00
2018-02-22T02:21:31.111Z,71.10
2018-02-22T02:23:59.538Z,71.00
2018-02-22T02:26:27.207Z,71.00
2018-02-22T02:28:54.829Z,71.10
2018-02-22T02:31:22.489Z,71.10
2018-02-22T02:33:50.150Z,71.20
2018-02-22T02:36:18.188Z,71.40
2018-02-22T02:38:46.649Z,71.60
2018-02-22T02:41:14.284Z,71.50
2018-02-22T02:43:41.940Z,71.50
2018-02-22T02:46:10.324Z,71.50
2018-02-22T02:48:38.800Z,71.50
2018-02-22T02:51:06.475Z,71.40
2018-02-22T02:53:34.089Z,71.40
2018-02-22T02:56:01.770Z,71.50
2018-02-22T02:58:29.416Z,71.50
2018-02-22T03:00:57.842Z,71.60
2018-02-22T03:03:25.483Z,71.60
2018-02-22T03:05:53.858Z,72.40
2018-02-22T03:08:21.515Z,71.60
2018-02-22T03:10:49.167Z,72.40
2018-02-22T03:13:16.811Z,71.80
2018-02-22T03:15:44.499Z,71.60
2018-02-22T03:18:12.118Z,71.60
2018-02-22T03:20:39.770Z,71.70
2018-02-22T03:23:07.382Z,71.80
2018-02-22T03:25:35.845Z,71.90
2018-02-22T03:28:03.503Z,71.90
2018-02-22T03:30:31.111Z,72.00
2018-02-22T03:32:58.743Z,72.10
2018-02-22T03:35:26.372Z,72.10
2018-02-22T03:37:54.006Z,72.10
2018-02-22T03:40:21.659Z,72.10
2018-02-22T03:42:49.299Z,72.20
2018-02-22T03:45:17.699Z,72.30
2018-02-22T03:47:46.068Z,72.40
2018-02-22T03:50:13.737Z,72.20
2018-02-22T03:52:41.386Z,72.40
2018-02-22T03:55:09.759Z,72.40
2018-02-22T03:57:37.412Z,72.40
2018-02-22T04:00:05.054Z,72.40
2018-02-22T04:02:32.715Z,72.40
2018-02-22T04:05:00.375Z,72.60
2018-02-22T04:07:28.057Z,72.70
2018-02-22T04:09:55.739Z,72.70
2018-02-22T04:12:23.352Z,72.80
2018-02-22T04:14:51.784Z,73.00
2018-02-22T04:17:19.389Z,72.90
2018-02-22T04:19:47.127Z,73.00
2018-02-22T04:22:24.696Z,73.00
2018-02-22T04:24:53.107Z,73.20
2018-02-22T04:27:20.762Z,73.10
2018-02-22T04:29:49.158Z,73.20
2018-02-22T04:32:16.829Z,73.20
2018-02-22T04:34:45.223Z,73.20
2018-02-22T04:37:13.644Z,73.20
2018-02-22T04:39:41.296Z,73.20
2018-02-22T04:42:09.671Z,74.00
2018-02-22T04:44:38.091Z,73.30
2018-02-22T04:47:05.719Z,73.30
2018-02-22T04:49:33.367Z,73.40
2018-02-22T04:52:01.003Z,73.50
2018-02-22T04:54:28.639Z,73.60
2018-02-22T04:56:56.524Z,73.60
2018-02-22T04:59:24.139Z,73.70
2018-02-22T05:01:51.794Z,73.70
2018-02-22T05:04:20.196Z,73.70
2018-02-22T05:06:47.866Z,73.70
2018-02-22T05:09:16.297Z,73.90
2018-02-22T05:11:43.927Z,73.70
2018-02-22T05:14:12.311Z,73.80
2018-02-22T05:16:39.894Z,73.80
2018-02-22T05:19:08.267Z,74.00
2018-02-22T05:21:35.869Z,73.90
2018-02-22T05:24:03.446Z,74.00
2018-02-22T05:26:31.066Z,74.00
2018-02-22T05:28:58.645Z,74.00
2018-02-22T05:31:26.256Z,74.00
2018-02-22T05:33:54.637Z,74.00
2018-02-22T05:36:22.987Z,74.00
2018-02-22T05:38:50.594Z,74.00
2018-02-22T05:41:18.209Z,74.00
2018-02-22T05:43:45.814Z,74.80
2018-02-22T05:46:13.427Z,73.90
2018-02-22T05:48:41.775Z,73.80
2018-02-22T05:51:10.270Z,73.80
2018-02-22T05:53:37.841Z,73.80
2018-02-22T05:56:05.451Z,73.80
2018-02-22T05:58:33.830Z,73.80
2018-02-22T06:01:02.180Z,73.80
2018-02-22T06:03:29.785Z,73.70
2018-02-22T06:05:57.374Z,73.80
2018-02-22T06:08:25.746Z,73.80
2018-02-22T06:10:53.346Z,73.80
2018-02-22T06:13:21.723Z,73.80
2018-02-22T06:15:49.350Z,73.80
2018-02-22T06:18:16.942Z,73.90
2018-02-22T06:20:44.550Z,73.80
2018-02-22T06:23:12.921Z,73.80
2018-02-22T06:25:40.498Z,73.80
2018-02-22T06:28:08.103Z,74.60
2018-02-22T06:30:36.535Z,74.00
2018-02-22T06:33:04.258Z,74.00
2018-02-22T06:35:32.634Z,74.30
2018-02-22T06:38:00.222Z,74.20
2018-02-22T06:40:28.597Z,74.40
2018-02-22T06:42:56.179Z,74.40
2018-02-22T06:45:24.550Z,75.30
2018-02-22T06:47:52.149Z,74.50
2018-02-22T06:50:20.489Z,74.60
2018-02-22T06:52:48.094Z,74.60
2018-02-22T06:55:15.670Z,74.80
2018-02-22T06:57:43.285Z,74.80
2018-02-22T07:00:10.910Z,74.80
2018-02-22T07:02:38.481Z,74.80
2018-02-22T07:05:06.095Z,74.80
2018-02-22T07:07:33.697Z,74.80
2018-02-22T07:10:01.302Z,74.70
2018-02-22T07:12:28.910Z,74.80
2018-02-22T07:14:56.493Z,74.70
2018-02-22T07:17:24.098Z,74.70
2018-02-22T07:19:51.682Z,74.60
2018-02-22T07:22:19.901Z,74.60
2018-02-22T07:24:47.586Z,74.70
2018-02-22T07:27:16.070Z,74.50
2018-02-22T07:29:44.438Z,74.20
2018-02-22T07:32:12.020Z,74.10
2018-02-22T07:34:39.630Z,73.80
2018-02-22T07:37:07.497Z,73.80
2018-02-22T07:39:35.202Z,73.60
2018-02-22T07:42:02.805Z,73.30
2018-02-22T07:44:31.178Z,72.80
2018-02-22T07:46:58.753Z,72.70
2018-02-22T07:49:27.149Z,71.40
2018-02-22T07:51:55.498Z,70.90
2018-02-22T07:54:23.108Z,70.90
2018-02-22T07:56:50.714Z,70.60
2018-02-22T07:59:18.286Z,70.00
2018-02-22T08:01:50.125Z,69.30
2018-02-22T08:04:17.705Z,68.70
2018-02-22T08:06:46.079Z,68.00
2018-02-22T08:09:13.682Z,68.00
2018-02-22T08:11:41.262Z,67.50
2018-02-22T08:14:08.879Z,67.40
2018-02-22T08:16:36.479Z,66.00
2018-02-22T08:19:04.086Z,65.60
2018-02-22T08:21:31.699Z,65.40
2018-02-22T08:23:59.278Z,64.80
2018-02-22T08:26:26.906Z,64.40
2018-02-22T08:28:54.486Z,63.60
2018-02-22T08:31:22.092Z,63.10
2018-02-22T08:33:49.856Z,63.00
2018-02-22T08:36:19.380Z,61.60
2018-02-22T08:38:47.039Z,61.60
2018-02-22T08:41:16.242Z,60.00
2018-02-22T08:43:43.872Z,60.00
2018-02-22T08:46:11.502Z,59.80
2018-02-22T08:48:45.698Z,58.60
2018-02-22T08:51:13.302Z,58.60
2018-02-22T08:53:41.643Z,57.90
2018-02-22T08:56:09.283Z,57.80
2018-02-22T08:58:38.579Z,57.70
2018-02-22T09:01:06.951Z,56.60
2018-02-22T09:03:55.151Z,56.40
2018-02-22T09:06:22.788Z,56.40
2018-02-22T09:08:51.174Z,55.70
2018-02-22T09:11:18.750Z,55.60
2018-02-22T09:14:05.204Z,55.00
2018-02-22T09:16:33.646Z,54.80
2018-02-22T09:19:01.349Z,54.80
2018-02-22T09:21:28.926Z,54.30
2018-02-22T09:23:56.535Z,54.00
2018-02-22T09:26:24.109Z,53.80
2018-02-22T09:28:51.683Z,53.00
2018-02-22T09:31:20.055Z,52.20
2018-02-22T09:33:47.655Z,52.20
2018-02-22T09:36:15.239Z,51.70
2018-02-22T09:38:42.856Z,51.70
2018-02-22T09:41:10.454Z,51.10
2018-02-22T09:43:38.025Z,50.80
2018-02-22T09:46:05.630Z,50.90
2018-02-22T09:48:33.211Z,50.90
2018-02-22T09:51:00.821Z,50.40
2018-02-22T09:53:28.423Z,49.80
2018-02-22T09:55:55.991Z,49.30
2018-02-22T09:58:23.592Z,49.10
2018-02-22T10:00:51.164Z,49.20
2018-02-22T10:03:18.766Z,48.80
2018-02-22T10:05:47.130Z,48.50
2018-02-22T10:08:14.695Z,48.50
2018-02-22T10:10:42.543Z,47.90
2018-02-22T10:13:10.114Z,47.30
2018-02-22T10:15:37.710Z,47.70
2018-02-22T10:18:05.524Z,47.60
2018-02-22T10:20:33.127Z,47.60
2018-02-22T10:23:00.809Z,47.50
2018-02-22T10:25:28.451Z,47.70
2018-02-22T10:27:56.847Z,47.90
2018-02-22T10:30:25.248Z,47.90
2018-02-22T10:32:53.068Z,47.90
2018-02-22T10:35:20.679Z,48.10
2018-02-22T10:37:49.097Z,48.40
2018-02-22T10:40:16.735Z,48.40
2018-02-22T10:42:44.660Z,48.40
2018-02-22T10:45:12.312Z,48.40
2018-02-22T10:47:39.936Z,48.60
2018-02-22T10:50:07.738Z,48.90
2018-02-22T10:52:36.149Z,49.50
2018-02-22T10:55:04.520Z,49.80
2018-02-22T10:57:32.159Z,49.80
2018-02-22T11:00:11.752Z,49.80
2018-02-22T11:02:45.121Z,49.70
2018-02-22T11:05:12.740Z,49.90
2018-02-22T11:07:41.177Z,50.30
2018-02-22T11:10:08.840Z,49.80
2018-02-22T11:12:36.488Z,49.80
2018-02-22T11:15:04.926Z,49.40
2018-02-22T11:17:32.553Z,49.40
2018-02-22T11:20:00.973Z,48.10
2018-02-22T11:22:28.603Z,48.10
2018-02-22T11:24:56.238Z,47.50
2018-02-22T11:27:23.904Z,46.90
2018-02-22T11:29:51.527Z,46.60
2018-02-22T11:32:19.223Z,46.30
2018-02-22T11:34:47.648Z,45.70
2018-02-22T11:37:15.268Z,45.70
2018-02-22T11:39:42.944Z,45.70
2018-02-22T11:42:10.571Z,45.50
2018-02-22T11:44:38.222Z,44.70
2018-02-22T11:47:06.009Z,44.80
2018-02-22T11:49:33.635Z,45.00
2018-02-22T11:52:01.313Z,45.00
2018-02-22T11:54:28.980Z,44.70
2018-02-22T11:56:56.754Z,44.40
2018-02-22T11:59:24.424Z,44.10
2018-02-22T12:01:52.830Z,44.10
2018-02-22T12:04:20.491Z,44.00
2018-02-22T12:06:48.212Z,43.30
2018-02-22T12:09:16.636Z,43.20
2018-02-22T12:11:44.324Z,43.30
2018-02-22T12:14:11.952Z,43.20
2018-02-22T12:16:40.352Z,43.20
2018-02-22T12:19:07.961Z,43.20
2018-02-22T12:21:36.389Z,42.80
2018-02-22T12:24:04.053Z,42.70
2018-02-22T12:26:31.672Z,43.30
2018-02-22T12:28:59.371Z,42.60
2018-02-22T12:31:27.019Z,42.50
2018-02-22T12:33:54.701Z,42.40
2018-02-22T12:36:22.388Z,42.60
2018-02-22T12:38:50.017Z,42.70
2018-02-22T12:41:18.427Z,41.90
2018-02-22T12:43:46.044Z,41.90
2018-02-22T12:46:13.712Z,41.80
2018-02-22T12:48:42.168Z,40.90
2018-02-22T12:51:09.787Z,41.30
2018-02-22T12:53:37.446Z,41.30
2018-02-22T12:56:05.184Z,41.80
2018-02-22T12:58:33.587Z,42.00
2018-02-22T13:01:01.232Z,42.00
2018-02-22T13:03:28.877Z,42.00
2018-02-22T13:05:56.564Z,41.80
2018-02-22T13:08:26.212Z,41.30
2018-02-22T13:10:53.902Z,41.20
2018-02-22T13:13:22.348Z,41.00
2018-02-22T13:15:49.996Z,41.00
2018-02-22T13:18:17.711Z,40.60
2018-02-22T13:20:45.332Z,40.50
2018-02-22T13:23:13.045Z,40.60
2018-02-22T13:25:40.724Z,40.60
2018-02-22T13:28:08.339Z,40.20
2018-02-22T13:30:36.750Z,39.50
2018-02-22T13:33:16.108Z,39.50
2018-02-22T13:35:43.755Z,39.50
2018-02-22T13:38:24.061Z,39.60
2018-02-22T13:40:51.755Z,39.60
2018-02-22T13:43:19.387Z,39.50
2018-02-22T13:45:47.044Z,39.50
2018-02-22T13:48:15.464Z,39.00
2018-02-22T13:50:54.996Z,39.00
2018-02-22T13:53:22.610Z,39.00
2018-02-22T13:55:50.223Z,39.20
2018-02-22T13:58:24.123Z,39.30
2018-02-22T14:01:03.520Z,39.30
2018-02-22T14:03:31.189Z,39.30
2018-02-22T14:05:59.601Z,39.20
2018-02-22T14:08:49.072Z,39.20
2018-02-22T14:11:16.700Z,39.20
2018-02-22T14:13:44.335Z,38.90
2018-02-22T14:16:11.942Z,38.00
2018-02-22T14:18:39.585Z,38.00
2018-02-22T14:21:07.216Z,37.80
2018-02-22T14:23:34.894Z,38.00
2018-02-22T14:26:02.725Z,38.20
2018-02-22T14:28:30.440Z,37.90
2018-02-22T14:30:58.087Z,38.00
2018-02-22T14:33:25.728Z,38.00
2018-02-22T14:35:53.383Z,38.30
2018-02-22T14:38:21.808Z,38.20
2018-02-22T14:40:49.644Z,38.10
2018-02-22T14:43:18.056Z,38.10
2018-02-22T14:45:45.711Z,38.00
2018-02-22T14:48:14.107Z,37.90
2018-02-22T14:50:42.563Z,37.70
2018-02-22T14:53:10.218Z,37.70
2018-02-22T14:55:37.839Z,37.90
2018-02-22T14:58:06.284Z,37.90
2018-02-22T15:00:33.908Z,37.80
2018-02-22T15:03:02.354Z,37.40
2018-02-22T15:11:22.762Z,37.50
2018-02-22T15:13:50.683Z,37.60
2018-02-22T15:16:19.226Z,37.50
2018-02-22T15:18:46.936Z,37.70
2018-02-22T15:21:14.684Z,38.00
2018-02-22T15:23:42.459Z,38.00
2018-02-22T15:26:10.193Z,38.20
2018-02-22T15:28:37.940Z,38.20
2018-02-22T15:31:06.328Z,38.00
2018-02-22T15:33:35.061Z,38.80
2018-02-22T15:36:03.348Z,38.20
2018-02-22T15:38:37.759Z,38.60
2018-02-22T15:41:06.755Z,38.90
2018-02-22T15:43:35.266Z,39.10
2018-02-22T15:46:03.084Z,39.10
2018-02-22T15:48:30.687Z,38.90
2018-02-22T15:50:58.368Z,39.00
2018-02-22T15:53:26.924Z,40.10
2018-02-22T15:55:54.624Z,39.50
2018-02-22T15:58:22.299Z,39.70
2018-02-22T16:00:50.137Z,39.70
2018-02-22T16:03:17.842Z,39.70
2018-02-22T16:05:45.495Z,40.00
2018-02-22T16:08:31.659Z,40.30
2018-02-22T16:10:59.311Z,40.30
2018-02-22T16:13:26.951Z,40.50
2018-02-22T16:15:54.639Z,40.70
2018-02-22T16:18:22.268Z,40.90
2018-02-22T16:20:49.942Z,41.00
2018-02-22T16:23:18.355Z,41.50
2018-02-22T16:25:45.990Z,41.40
2018-02-22T16:28:14.460Z,42.20
2018-02-22T16:30:42.116Z,41.80
2018-02-22T16:33:09.813Z,42.00
2018-02-22T16:35:37.489Z,42.00
2018-02-22T16:38:05.123Z,42.30
2018-02-22T16:40:32.817Z,42.40
2018-02-22T16:43:00.457Z,42.70
2018-02-22T16:45:28.091Z,42.90
2018-02-22T16:47:55.728Z,43.10
2018-02-22T16:50:23.381Z,43.40
2018-02-22T16:52:51.050Z,43.40
2018-02-22T16:55:18.648Z,43.60
2018-02-22T16:57:46.297Z,43.80
2018-02-22T17:00:13.934Z,43.80
2018-02-22T17:02:41.564Z,44.00
2018-02-22T17:05:13.222Z,44.10
2018-02-22T17:07:40.838Z,44.30
2018-02-22T17:10:08.492Z,44.50
2018-02-22T17:12:36.813Z,44.40
2018-02-22T17:15:04.552Z,44.40
2018-02-22T17:17:44.051Z,44.70
2018-02-22T17:20:11.706Z,44.70
2018-02-22T17:22:39.348Z,44.60
2018-02-22T17:25:07.395Z,44.80
2018-02-22T17:27:41.473Z,45.00
2018-02-22T17:30:14.835Z,45.00
2018-02-22T17:32:59.984Z,45.20
2018-02-22T17:38:30.498Z,45.30
2018-02-22T17:41:13.519Z,45.60
2018-02-22T17:46:39.633Z,45.70
2018-02-22T17:49:07.449Z,45.90
2018-02-22T17:51:35.095Z,45.90
2018-02-22T17:54:02.726Z,46.10
2018-02-22T17:59:39.213Z,46.40
2018-02-22T18:02:06.906Z,46.40
2018-02-22T18:04:34.701Z,46.60
2018-02-22T18:07:03.148Z,46.60
2018-02-22T18:09:30.846Z,46.50
2018-02-22T18:11:58.510Z,46.50
2018-02-22T18:14:26.213Z,46.70
2018-02-22T18:16:54.624Z,46.90
2018-02-22T18:19:22.308Z,46.80
2018-02-22T18:21:49.975Z,46.90
2018-02-22T18:24:17.618Z,47.00
2018-02-22T18:26:46.034Z,47.20
2018-02-22T18:29:13.699Z,47.10
2018-02-22T18:31:42.123Z,47.40
2018-02-22T18:34:09.747Z,47.40
2018-02-22T18:36:37.431Z,47.50
2018-02-22T18:39:11.579Z,47.70
2018-02-22T18:41:44.908Z,47.70
2018-02-22T18:44:22.356Z,47.70
2018-02-22T18:46:50.023Z,47.60
2018-02-22T18:49:17.711Z,47.80
2018-02-22T18:51:45.321Z,47.80
2018-02-22T18:54:23.304Z,47.90
2018-02-22T18:56:50.923Z,48.00
2018-02-22T18:59:18.595Z,47.90
2018-02-22T19:01:46.231Z,47.90
2018-02-22T19:04:14.635Z,48.10
2018-02-22T19:06:43.064Z,48.20
2018-02-22T19:09:10.678Z,48.20
2018-02-22T19:11:38.320Z,48.30
2018-02-22T19:14:06.018Z,48.40
2018-02-22T19:16:33.664Z,48.50
2018-02-22T19:19:01.351Z,48.50
2018-02-22T19:21:28.981Z,48.70
2018-02-22T19:23:57.550Z,49.10
2018-02-22T19:26:25.233Z,49.10
2018-02-22T19:28:52.864Z,49.20
2018-02-22T19:31:20.516Z,49.30
2018-02-22T19:33:48.132Z,49.20
2018-02-22T19:36:16.049Z,49.30
2018-02-22T19:38:44.685Z,49.20
2018-02-22T19:41:12.437Z,49.20
2018-02-22T19:43:40.092Z,49.20
2018-02-22T19:46:08.558Z,49.20
2018-02-22T19:48:36.229Z,49.20
2018-02-22T19:51:03.864Z,49.20
2018-02-22T19:53:31.536Z,49.20
2018-02-22T19:55:59.191Z,49.20
2018-02-22T19:58:27.584Z,49.80
2018-02-22T20:00:55.245Z,49.70
2018-02-22T20:03:23.634Z,49.90
2018-02-22T20:05:52.288Z,50.10
2018-02-22T20:08:19.920Z,50.10
2018-02-22T20:10:48.451Z,50.40
2018-02-22T20:13:16.127Z,50.30
2018-02-22T20:15:43.805Z,50.50
2018-02-22T20:18:12.293Z,50.10
2018-02-22T20:20:39.936Z,50.60
2018-02-22T20:23:08.361Z,50.70
2018-02-22T20:25:36.028Z,50.70
2018-02-22T20:28:03.792Z,50.80
2018-02-22T20:30:31.569Z,50.80
2018-02-22T20:32:59.244Z,50.80
2018-02-22T20:35:32.835Z,50.80
2018-02-22T20:38:00.817Z,50.80
2018-02-22T20:40:28.609Z,50.80
2018-02-22T20:42:57.589Z,50.80
2018-02-22T20:48:33.107Z,50.90
2018-02-22T20:54:07.896Z,50.80
2018-02-22T20:56:35.815Z,50.90
2018-02-22T20:59:03.811Z,51.60
2018-02-22T21:01:31.686Z,51.00
2018-02-22T21:04:00.097Z,51.10
2018-02-22T21:06:28.682Z,51.00
2018-02-22T21:08:56.682Z,51.00
2018-02-22T21:11:25.150Z,51.30
2018-02-22T21:13:53.072Z,51.20
2018-02-22T21:16:21.044Z,51.30
2018-02-22T21:18:50.830Z,51.30
2018-02-22T21:21:18.627Z,51.30
2018-02-22T21:23:46.210Z,51.40
2018-02-22T21:26:13.897Z,51.40
2018-02-22T21:28:41.841Z,51.50
2018-02-22T21:31:09.647Z,51.50
2018-02-22T21:33:43.269Z,51.60
2018-02-22T21:36:11.867Z,51.70
2018-02-22T21:38:40.476Z,51.90
2018-02-22T21:41:08.165Z,51.90
2018-02-22T21:43:35.845Z,51.90
2018-02-22T21:46:03.513Z,52.10
2018-02-22T21:48:31.581Z,52.10
2018-02-22T21:50:59.493Z,52.20
2018-02-22T21:53:27.678Z,52.20
2018-02-22T21:55:55.582Z,52.10
2018-02-22T21:58:23.243Z,52.20
2018-02-22T22:00:50.878Z,52.20
2018-02-22T22:03:19.303Z,52.40
2018-02-22T22:05:47.050Z,52.40
2018-02-22T22:08:15.491Z,52.70
2018-02-22T22:10:43.188Z,52.70
2018-02-22T22:13:10.992Z,52.70
2018-02-22T22:15:38.680Z,52.70
2018-02-22T22:18:06.287Z,52.70
2018-02-22T22:20:33.868Z,52.70
2018-02-22T22:23:01.474Z,52.70
2018-02-22T22:25:29.851Z,53.00
2018-02-22T22:27:57.434Z,53.00
2018-02-22T22:30:25.814Z,53.20
2018-02-22T22:32:53.421Z,53.10
2018-02-22T22:35:21.763Z,53.30
2018-02-22T22:37:49.368Z,53.20
2018-02-22T22:40:17.739Z,53.40
2018-02-22T22:42:45.310Z,53.40
2018-02-22T22:45:12.961Z,53.40
2018-02-22T22:47:40.596Z,53.40
2018-02-22T22:50:08.958Z,53.50
2018-02-22T22:52:36.830Z,53.40
2018-02-22T22:55:04.431Z,53.50
2018-02-22T23:14:50.687Z,53.90
2018-02-22T23:17:18.295Z,54.10
2018-02-22T23:19:46.223Z,54.10
2018-02-22T23:22:13.799Z,54.80
2018-02-22T23:24:41.410Z,54.40
2018-02-22T23:27:08.992Z,54.60
2018-02-22T23:29:36.590Z,54.70
2018-02-22T23:32:04.942Z,54.80
2018-02-22T23:34:33.330Z,54.90
2018-02-22T23:37:00.935Z,54.90
2018-02-22T23:39:29.490Z,55.00
2018-02-22T23:42:03.675Z,55.10
2018-02-22T23:44:31.294Z,55.10
2018-02-22T23:46:58.936Z,55.10
2018-02-22T23:49:26.531Z,55.10
2018-02-22T23:51:54.149Z,55.20
2018-02-22T23:54:21.927Z,55.20
2018-02-22T23:56:50.265Z,55.50
2018-02-22T23:59:18.027Z,55.40
